Time;durP1;ratioP1;P1;durP2;ratioP2;P2;SDS_P1;SDS_P2;PMS_P1;PMS_P2;Temp;Humidity;BMP_temperature;BMP_pressure;BME280_temperature;BME280_humidity;BME280_pressure;Samples;Min_cycle;Max_cycle;Signal;HPM_P1;HPM_P2
2023/03/29 00:01:12;;;;;;;;;13.00;12.00;;;;;11.94;49.59;101269.44;5041856;28;46090;-64
2023/03/29 00:03:38;;;;;;;;;15.50;11.50;;;;;11.95;49.46;101272.94;5040556;28;45809;-64
2023/03/29 00:06:05;;;;;;;;;15.00;13.00;;;;;11.93;49.64;101265.06;5042128;28;45308;-64
2023/03/29 00:08:32;;;;;;;;;12.00;10.75;;;;;11.93;49.60;101265.06;5040761;28;45598;-63
2023/03/29 00:10:59;;;;;;;;;12.25;11.00;;;;;11.92;49.50;101268.59;5041646;28;46101;-63
2023/03/29 00:13:25;;;;;;;;;12.00;11.00;;;;;11.93;49.60;101267.69;5048887;28;45321;-63
2023/03/29 00:15:52;;;;;;;;;7.25;6.25;;;;;11.92;49.54;101252.78;5060729;28;45381;-63
2023/03/29 00:18:17;;;;;;;;;14.75;11.25;;;;;11.92;49.56;101252.78;5062192;28;45295;-63
2023/03/29 00:20:43;;;;;;;;;11.75;9.50;;;;;11.91;49.66;101243.16;5060411;28;46878;-63
2023/03/29 00:23:08;;;;;;;;;8.00;8.00;;;;;11.92;49.57;101259.81;5061981;28;46741;-63
2023/03/29 00:25:33;;;;;;;;;11.25;10.00;;;;;11.92;49.41;101259.81;5062043;28;45276;-63
2023/03/29 00:27:59;;;;;;;;;10.25;10.25;;;;;11.92;49.54;101257.19;5061925;28;45334;-63
2023/03/29 00:30:24;;;;;;;;;9.75;9.00;;;;;11.91;49.52;101253.69;5061489;28;46056;-63
2023/03/29 00:32:50;;;;;;;;;11.00;8.25;;;;;11.91;49.57;101248.44;5061731;28;45468;-64
2023/03/29 00:35:16;;;;;;;;;11.50;9.00;;;;;11.91;49.64;101251.06;5061929;28;45294;-63
2023/03/29 00:37:41;;;;;;;;;11.25;7.75;;;;;11.91;49.56;101255.44;5061803;28;45450;-63
2023/03/29 00:40:09;;;;;;;;;6.00;6.00;;;;;11.91;49.84;101265.97;5061541;28;46133;-64
2023/03/29 00:42:35;;;;;;;;;10.50;10.50;;;;;11.91;49.56;101264.22;5060187;28;45978;-64
2023/03/29 00:45:36;;;;;;;;;8.75;8.00;;;;;11.91;49.71;101255.44;5061611;28;45358;-64
2023/03/29 00:48:06;;;;;;;;;10.00;8.50;;;;;11.90;49.61;101253.69;4988779;28;45302;-64
2023/03/29 00:50:35;;;;;;;;;8.25;8.25;;;;;11.92;49.58;101250.16;5038976;28;46469;-63
2023/03/29 00:53:06;;;;;;;;;14.50;11.25;;;;;11.92;49.60;101263.31;5050512;28;45348;-64
2023/03/29 00:55:38;;;;;;;;;11.25;10.00;;;;;11.89;49.58;101258.09;5062211;28;45411;-64
2023/03/29 00:58:07;;;;;;;;;8.75;7.75;;;;;11.93;49.48;101254.53;5061402;28;45236;-64
2023/03/29 01:00:37;;;;;;;;;7.75;7.75;;;;;11.93;49.54;101257.16;5042438;28;47314;-64
2023/03/29 01:03:12;;;;;;;;;9.00;8.50;;;;;11.94;49.56;101250.16;5061057;28;45308;-64
2023/03/29 01:05:47;;;;;;;;;9.75;8.75;;;;;11.89;49.61;101236.16;5043385;28;45474;-64
2023/03/29 01:08:24;;;;;;;;;9.50;9.50;;;;;11.96;49.35;101241.38;5061112;28;45507;-63
2023/03/29 01:11:10;;;;;;;;;6.00;4.75;;;;;11.96;49.59;101238.75;5060910;28;46134;-63
2023/03/29 01:13:42;;;;;;;;;9.00;9.00;;;;;11.98;49.51;101251.88;5061216;28;45269;-64
2023/03/29 01:16:12;;;;;;;;;9.00;8.25;;;;;11.95;49.47;101236.06;5061059;28;45244;-63
2023/03/29 01:18:38;;;;;;;;;9.25;9.00;;;;;11.98;49.57;101241.34;5061067;28;45438;-63
2023/03/29 01:21:28;;;;;;;;;11.75;11.50;;;;;11.99;49.34;101243.97;5042594;28;47632;-64
2023/03/29 01:24:05;;;;;;;;;8.50;8.50;;;;;11.99;49.57;101237.84;5061073;28;45217;-64
2023/03/29 01:27:06;;;;;;;;;9.75;8.75;;;;;11.99;49.62;101236.06;5061129;28;45375;-63
2023/03/29 01:29:52;;;;;;;;;10.75;9.50;;;;;11.98;49.46;101228.19;5025363;28;46237;-63
2023/03/29 01:32:25;;;;;;;;;10.75;8.00;;;;;11.97;49.49;101215.91;5046488;28;47268;-64
2023/03/29 01:35:01;;;;;;;;;8.00;8.00;;;;;11.95;49.72;101212.38;5081299;28;45421;-64
2023/03/29 01:37:33;;;;;;;;;7.75;7.75;;;;;11.97;49.51;101229.91;5081130;28;45227;-64
2023/03/29 01:39:59;;;;;;;;;9.25;8.25;;;;;11.97;49.52;101229.06;5080959;28;45492;-64
2023/03/29 01:42:34;;;;;;;;;8.50;8.50;;;;;11.96;49.57;101238.75;5080740;28;46311;-63
2023/03/29 01:45:08;;;;;;;;;11.75;9.00;;;;;11.95;49.45;101228.16;5062403;28;45278;-63
2023/03/29 01:48:02;;;;;;;;;8.25;8.25;;;;;11.93;49.60;101227.34;5059949;28;45287;-64
2023/03/29 01:51:00;;;;;;;;;8.50;7.00;;;;;11.92;49.41;101229.06;5077815;28;45555;-63
2023/03/29 01:53:44;;;;;;;;;12.50;9.25;;;;;11.90;49.77;101228.25;5042926;28;45457;-63
2023/03/29 01:56:15;;;;;;;;;8.50;8.50;;;;;11.90;49.73;101228.25;5060394;28;45311;-64
2023/03/29 01:58:45;;;;;;;;;7.50;7.00;;;;;11.89;49.63;101218.59;5060470;28;45273;-63
2023/03/29 02:01:16;;;;;;;;;7.00;7.00;;;;;11.89;49.67;101217.75;5060278;28;45462;-63
2023/03/29 02:03:48;;;;;;;;;9.00;9.00;;;;;11.87;49.68;101216.00;5041592;28;47692;-63
2023/03/29 02:06:17;;;;;;;;;11.00;9.00;;;;;11.87;49.59;101202.81;5060221;28;45664;-64
2023/03/29 02:08:44;;;;;;;;;11.50;7.75;;;;;11.86;49.57;101213.34;5060354;28;45358;-63
2023/03/29 02:11:09;;;;;;;;;9.00;8.50;;;;;11.86;49.83;101215.97;5060016;28;45365;-63
2023/03/29 02:13:35;;;;;;;;;9.00;8.50;;;;;11.85;49.71;101220.38;5059362;28;46095;-63
2023/03/29 02:16:07;;;;;;;;;9.00;7.25;;;;;11.84;49.74;101226.53;5059897;28;45335;-64
2023/03/29 02:18:34;;;;;;;;;9.75;8.00;;;;;11.86;49.80;101223.88;5060337;28;45352;-63
2023/03/29 02:21:01;;;;;;;;;8.25;7.75;;;;;11.85;49.65;101224.81;5059839;28;45490;-63
2023/03/29 02:23:34;;;;;;;;;13.00;9.25;;;;;11.85;49.73;101222.16;5042072;28;45209;-63
2023/03/29 02:26:02;;;;;;;;;8.50;8.50;;;;;11.85;49.88;101222.16;5059833;28;45859;-64
2023/03/29 02:28:30;;;;;;;;;7.00;7.00;;;;;11.85;49.75;101219.53;5060155;28;45203;-64
2023/03/29 02:31:18;;;;;;;;;10.75;9.75;;;;;11.84;49.82;101204.63;5040987;28;45541;-64
2023/03/29 02:34:01;;;;;;;;;9.00;8.50;;;;;11.84;49.99;101194.09;5041654;28;47396;-63
2023/03/29 02:36:37;;;;;;;;;11.00;9.00;;;;;11.83;49.99;101187.06;5068675;28;45345;-64
2023/03/29 02:39:04;;;;;;;;;8.00;8.00;;;;;11.82;49.77;101188.84;5061728;28;45339;-63
2023/03/29 02:41:31;;;;;;;;;9.50;8.25;;;;;11.83;49.93;101203.72;5045251;28;45375;-63
2023/03/29 02:43:58;;;;;;;;;7.00;7.00;;;;;11.84;49.91;101201.97;5061787;28;45464;-63
2023/03/29 02:46:25;;;;;;;;;5.25;5.25;;;;;11.82;49.82;101191.47;5079807;28;45761;-64
2023/03/29 02:48:52;;;;;;;;;8.25;8.25;;;;;11.81;50.08;101188.84;5061472;28;45435;-64
2023/03/29 02:51:22;;;;;;;;;8.00;7.25;;;;;11.82;49.83;101175.69;5079885;28;45332;-63
2023/03/29 02:53:56;;;;;;;;;9.00;7.00;;;;;11.84;49.91;101178.28;5056394;28;47296;-64
2023/03/29 02:56:21;;;;;;;;;10.75;9.25;;;;;11.83;50.13;101176.53;5059707;28;45579;-63
2023/03/29 02:58:47;;;;;;;;;13.00;7.50;;;;;11.84;49.84;101175.66;5059532;28;45190;-64
2023/03/29 03:01:13;;;;;;;;;10.00;8.25;;;;;11.82;49.98;101177.41;5059282;28;45248;-64
2023/03/29 03:03:40;;;;;;;;;8.25;8.25;;;;;11.82;50.02;101172.16;5072935;28;45334;-64
2023/03/29 03:06:05;;;;;;;;;11.75;8.75;;;;;11.83;50.11;101168.63;5059549;28;45253;-64
2023/03/29 03:08:31;;;;;;;;;13.00;8.75;;;;;11.83;49.99;101168.63;5059589;28;45471;-64
2023/03/29 03:10:57;;;;;;;;;8.50;6.00;;;;;11.84;50.03;101175.66;5059299;28;45553;-63
2023/03/29 03:13:22;;;;;;;;;7.00;4.50;;;;;11.82;50.27;101161.63;5059172;28;46130;-63
2023/03/29 03:15:48;;;;;;;;;9.25;7.75;;;;;11.82;50.03;101167.78;5041089;28;45341;-64
2023/03/29 03:18:15;;;;;;;;;11.00;9.50;;;;;11.83;50.07;101177.41;5041211;28;45345;-63
2023/03/29 03:20:41;;;;;;;;;12.00;9.00;;;;;11.81;50.01;101173.94;5041319;28;45320;-64
2023/03/29 03:23:08;;;;;;;;;11.50;9.25;;;;;11.83;50.28;101185.28;5058855;28;45388;-63
2023/03/29 03:25:34;;;;;;;;;7.75;7.75;;;;;11.83;50.07;101174.75;5062635;28;45235;-63
2023/03/29 03:28:00;;;;;;;;;12.00;9.00;;;;;11.84;50.16;101178.28;5062762;28;45272;-63
2023/03/29 03:30:26;;;;;;;;;8.50;7.75;;;;;11.82;50.09;101169.53;5044641;28;45550;-63
2023/03/29 03:32:53;;;;;;;;;8.00;8.00;;;;;11.82;50.19;101167.78;5062603;28;46275;-64
2023/03/29 03:35:19;;;;;;;;;8.25;8.25;;;;;11.82;50.24;101166.88;5062808;28;45359;-63
2023/03/29 03:37:44;;;;;;;;;12.75;8.25;;;;;11.80;50.14;101161.66;5062752;28;45312;-64
2023/03/29 03:40:10;;;;;;;;;8.00;8.00;;;;;11.82;50.21;101161.63;5062663;28;45339;-64
2023/03/29 03:42:37;;;;;;;;;7.50;6.25;;;;;11.82;50.30;101164.25;5062339;28;46279;-64
2023/03/29 03:45:03;;;;;;;;;10.50;9.00;;;;;11.82;50.39;101156.34;5061556;28;45202;-63
2023/03/29 03:47:29;;;;;;;;;13.50;8.75;;;;;11.81;50.38;101154.59;5062492;28;45630;-64
2023/03/29 03:49:55;;;;;;;;;10.00;9.75;;;;;11.79;50.41;101154.63;5057135;28;45420;-64
2023/03/29 03:52:20;;;;;;;;;9.25;7.00;;;;;11.83;50.54;101171.28;5082740;28;45322;-64
2023/03/29 03:54:47;;;;;;;;;8.00;8.00;;;;;11.83;50.37;101163.38;5069589;28;45456;-64
2023/03/29 03:57:12;;;;;;;;;9.25;9.00;;;;;11.82;50.56;101158.97;5044388;28;45333;-63
2023/03/29 03:59:38;;;;;;;;;9.00;9.00;;;;;11.83;50.56;101160.72;5044136;28;45329;-63
2023/03/29 04:02:04;;;;;;;;;11.50;9.00;;;;;11.84;50.55;101158.06;5062192;28;46549;-63
2023/03/29 04:04:30;;;;;;;;;10.25;9.75;;;;;11.84;50.62;101162.47;5061779;28;45474;-64
2023/03/29 04:07:01;;;;;;;;;11.00;10.00;;;;;11.81;50.78;101150.22;5062334;28;45348;-63
2023/03/29 04:09:28;;;;;;;;;9.25;8.75;;;;;11.80;50.66;101151.13;5061176;28;45541;-64
2023/03/29 04:11:54;;;;;;;;;9.25;8.00;;;;;11.81;50.90;101149.34;5043187;28;46400;-64
2023/03/29 04:14:20;;;;;;;;;9.75;9.00;;;;;11.83;50.66;101148.44;5043687;28;45343;-63
2023/03/29 04:16:46;;;;;;;;;7.00;7.00;;;;;11.81;50.66;101158.13;5043967;28;45353;-64
2023/03/29 04:19:12;;;;;;;;;8.25;8.00;;;;;11.82;50.95;101153.72;5061063;28;45264;-64
2023/03/29 04:21:37;;;;;;;;;9.25;9.25;;;;;11.82;50.83;101156.34;5044030;28;48058;-64
2023/03/29 04:24:03;;;;;;;;;10.50;10.00;;;;;11.80;50.84;101152.88;5061715;28;45404;-64
2023/03/29 04:26:28;;;;;;;;;9.50;7.75;;;;;11.81;50.80;101152.84;5068793;28;45233;-64
2023/03/29 04:28:54;;;;;;;;;8.25;7.75;;;;;11.83;51.06;101150.19;5082132;28;45542;-64
2023/03/29 04:31:19;;;;;;;;;11.00;10.00;;;;;11.82;50.97;101148.44;5081806;28;45239;-63
2023/03/29 04:33:46;;;;;;;;;9.00;9.00;;;;;11.85;50.85;101151.06;5082226;28;45293;-64
2023/03/29 04:36:12;;;;;;;;;10.00;8.75;;;;;11.82;51.09;101136.19;5081613;28;45335;-63
2023/03/29 04:38:40;;;;;;;;;9.75;8.00;;;;;11.83;50.82;101144.94;5081935;28;45446;-64
2023/03/29 04:41:07;;;;;;;;;10.00;9.50;;;;;11.84;51.26;101144.91;5081851;28;46032;-64
2023/03/29 04:43:33;;;;;;;;;9.25;9.25;;;;;11.83;51.21;101150.19;5081673;28;45248;-64
2023/03/29 04:45:58;;;;;;;;;9.75;9.00;;;;;11.82;51.39;101149.34;5074912;28;45178;-64
2023/03/29 04:48:25;;;;;;;;;10.75;9.00;;;;;11.84;51.20;101146.69;5049942;28;47173;-64
2023/03/29 04:50:52;;;;;;;;;9.50;8.25;;;;;11.83;51.27;101143.16;5061156;28;46367;-64
2023/03/29 04:53:18;;;;;;;;;11.50;9.50;;;;;11.84;51.48;101136.16;5070373;28;45431;-64
2023/03/29 04:55:45;;;;;;;;;11.75;9.25;;;;;11.85;51.35;101153.69;5061368;28;45349;-64
2023/03/29 04:58:11;;;;;;;;;7.25;7.25;;;;;11.83;51.31;101147.56;5061423;28;45583;-64
2023/03/29 05:00:37;;;;;;;;;10.00;9.00;;;;;11.84;51.36;101157.22;5060873;28;45276;-63
2023/03/29 05:03:03;;;;;;;;;14.00;8.50;;;;;11.87;51.36;101159.78;5061171;28;45321;-64
2023/03/29 05:05:29;;;;;;;;;15.00;10.00;;;;;11.86;51.64;101164.22;5061341;28;45236;-63
2023/03/29 05:07:54;;;;;;;;;8.25;7.75;;;;;11.83;51.29;101148.44;5061058;28;45439;-64
2023/03/29 05:10:20;;;;;;;;;14.75;10.25;;;;;11.86;51.88;101158.03;5060794;28;46134;-64
2023/03/29 05:12:45;;;;;;;;;10.50;9.00;;;;;11.86;51.63;101158.94;5042735;28;45586;-64
2023/03/29 05:15:11;;;;;;;;;10.50;8.50;;;;;11.81;51.69;101152.84;5061170;28;45410;-64
2023/03/29 05:17:36;;;;;;;;;7.25;7.00;;;;;11.89;51.74;101160.66;5060785;28;45273;-64
2023/03/29 05:20:08;;;;;;;;;9.25;8.00;;;;;11.88;51.72;101166.81;5042728;28;48319;-64
2023/03/29 05:22:35;;;;;;;;;12.00;8.50;;;;;11.88;51.65;101156.28;5060617;28;45186;-64
2023/03/29 05:25:00;;;;;;;;;11.75;10.75;;;;;11.90;51.70;101159.78;5060714;28;45394;-64
2023/03/29 05:27:26;;;;;;;;;10.25;9.25;;;;;11.91;51.88;101160.63;5042681;28;45255;-64
2023/03/29 05:29:51;;;;;;;;;10.00;9.00;;;;;11.92;51.87;101146.56;5060345;28;45998;-64
2023/03/29 05:32:17;;;;;;;;;10.00;7.75;;;;;11.94;52.19;101142.16;5060557;28;45351;-64
2023/03/29 05:34:42;;;;;;;;;10.25;7.00;;;;;11.93;51.83;101141.28;5060821;28;45269;-64
2023/03/29 05:37:07;;;;;;;;;9.00;8.00;;;;;11.93;51.88;101135.16;5060557;28;45298;-64
2023/03/29 05:39:33;;;;;;;;;10.00;8.50;;;;;11.92;51.96;101125.50;5060363;28;46089;-64
2023/03/29 05:41:59;;;;;;;;;8.25;8.25;;;;;11.94;51.93;101126.38;5059968;28;45422;-64
2023/03/29 05:44:25;;;;;;;;;9.50;7.00;;;;;11.96;51.96;101137.75;5060467;28;45272;-64
2023/03/29 05:46:51;;;;;;;;;9.75;8.25;;;;;11.94;52.04;101140.41;5060396;28;45412;-64
2023/03/29 05:49:16;;;;;;;;;9.75;9.00;;;;;11.98;52.11;101136.84;5067834;28;46263;-65
2023/03/29 05:51:44;;;;;;;;;12.75;7.75;;;;;11.96;52.09;101130.75;5080284;28;45233;-64
2023/03/29 05:54:10;;;;;;;;;9.00;8.00;;;;;11.98;52.29;101142.13;5054487;28;45444;-64
2023/03/29 05:56:35;;;;;;;;;9.00;7.50;;;;;11.99;52.33;101137.75;5061383;28;45228;-64
2023/03/29 05:59:01;;;;;;;;;9.00;8.00;;;;;11.99;52.33;101133.34;5072673;28;45416;-64
2023/03/29 06:01:26;;;;;;;;;14.00;9.00;;;;;12.00;52.23;101134.22;5059731;28;48128;-64
2023/03/29 06:03:51;;;;;;;;;9.50;9.25;;;;;12.01;52.49;101136.81;5060373;28;45245;-64
2023/03/29 06:06:17;;;;;;;;;9.50;9.50;;;;;12.00;52.43;101139.50;5060262;28;45342;-64
2023/03/29 06:08:43;;;;;;;;;9.75;9.25;;;;;11.98;52.83;101150.03;5041894;28;46431;-64
2023/03/29 06:11:12;;;;;;;;;10.25;8.75;;;;;11.96;53.15;101143.03;5041647;28;45443;-64
2023/03/29 06:13:37;;;;;;;;;10.50;10.00;;;;;11.98;52.87;101141.25;5060228;28;45218;-64
2023/03/29 06:16:07;;;;;;;;;8.50;7.75;;;;;11.97;53.06;101139.50;5059699;28;45263;-64
2023/03/29 06:18:33;;;;;;;;;12.00;11.00;;;;;11.98;53.16;101141.25;5041837;28;47184;-64
2023/03/29 06:20:58;;;;;;;;;14.00;11.00;;;;;11.99;53.03;101138.59;5059678;28;45325;-64
2023/03/29 06:23:23;;;;;;;;;11.75;10.00;;;;;11.99;53.10;101143.00;5059832;28;49338;-64
2023/03/29 06:25:52;;;;;;;;;8.50;7.25;;;;;11.99;53.13;101146.50;5041417;28;45499;-64
2023/03/29 06:28:18;;;;;;;;;12.50;10.75;;;;;11.99;53.21;101137.75;5041637;28;46243;-64
2023/03/29 06:30:44;;;;;;;;;11.75;10.75;;;;;12.00;53.19;101144.75;5041295;28;45303;-64
2023/03/29 06:33:10;;;;;;;;;13.00;11.75;;;;;11.99;53.14;101151.78;5041640;28;45242;-64
2023/03/29 06:35:36;;;;;;;;;11.50;9.75;;;;;11.98;53.24;101138.63;5041798;28;45298;-64
2023/03/29 06:38:03;;;;;;;;;10.50;9.75;;;;;11.98;53.44;101136.84;5059960;28;46188;-64
2023/03/29 06:40:29;;;;;;;;;12.75;10.75;;;;;12.02;53.44;101145.59;5059418;28;45401;-64
2023/03/29 06:42:58;;;;;;;;;12.25;11.00;;;;;12.02;53.41;101143.84;5041962;28;45254;-64
2023/03/29 06:45:25;;;;;;;;;10.00;8.00;;;;;12.00;53.73;101135.09;5059423;28;45499;-64
2023/03/29 06:47:51;;;;;;;;;11.25;10.00;;;;;12.02;53.79;101150.84;5059508;28;45630;-64
2023/03/29 06:50:17;;;;;;;;;12.25;10.00;;;;;12.02;53.69;101146.47;5056950;28;45435;-64
2023/03/29 06:52:45;;;;;;;;;10.75;8.50;;;;;12.01;53.47;101152.63;5079970;28;45423;-64
2023/03/29 06:55:10;;;;;;;;;11.25;10.00;;;;;12.02;54.01;101150.84;5044773;28;45423;-64
2023/03/29 06:57:37;;;;;;;;;12.50;9.75;;;;;12.00;53.71;101129.81;5059528;28;45447;-64
2023/03/29 07:00:17;;;;;;;;;9.00;8.50;;;;;12.04;53.88;101135.91;5058709;28;45226;-64
2023/03/29 07:02:44;;;;;;;;;13.00;11.25;;;;;12.06;53.79;101139.38;5041529;28;45366;-65
2023/03/29 07:05:11;;;;;;;;;8.50;8.50;;;;;12.07;53.79;101146.38;5059222;28;45470;-64
2023/03/29 07:08:29;;;;;;;;;11.75;10.75;;;;;12.10;53.87;101133.19;5059603;28;45948;-64
2023/03/29 07:10:32;;;;;;;;;11.25;8.25;;;;;12.13;53.79;101143.66;5051806;28;45468;-65
2023/03/29 07:12:59;;;;;;;;;13.00;10.00;;;;;12.13;53.82;101143.66;5059499;28;45331;-65
2023/03/29 07:15:26;;;;;;;;;13.25;10.00;;;;;12.16;54.11;101148.03;5059218;28;45317;-65
2023/03/29 07:17:52;;;;;;;;;12.00;11.00;;;;;12.15;54.21;101144.53;5040662;28;46688;-65
2023/03/29 07:20:18;;;;;;;;;11.50;10.00;;;;;12.19;54.27;101162.03;5068881;28;45296;-65
2023/03/29 07:22:45;;;;;;;;;11.50;10.75;;;;;12.20;54.00;101141.84;5063229;28;45419;-64
2023/03/29 07:25:11;;;;;;;;;10.00;10.00;;;;;12.24;54.11;101154.06;5059505;28;45327;-65
2023/03/29 07:27:38;;;;;;;;;11.75;11.75;;;;;12.23;54.15;101147.06;5059196;28;45193;-65
2023/03/29 07:30:09;;;;;;;;;13.25;12.50;;;;;12.29;54.08;101149.59;5059229;28;45364;-65
2023/03/29 07:32:39;;;;;;;;;11.50;9.50;;;;;12.31;54.07;101157.47;5059291;28;45281;-65
2023/03/29 07:35:05;;;;;;;;;15.00;14.25;;;;;12.37;53.92;101151.25;5041256;28;45289;-65
2023/03/29 07:37:33;;;;;;;;;13.00;10.50;;;;;12.35;54.03;101149.50;5059033;28;46445;-65
2023/03/29 07:39:59;;;;;;;;;11.00;11.00;;;;;12.42;54.01;101152.06;5058253;28;45439;-64
2023/03/29 07:42:24;;;;;;;;;16.75;13.00;;;;;12.40;54.06;101146.81;5059008;28;45238;-65
2023/03/29 07:44:50;;;;;;;;;13.00;11.00;;;;;12.46;53.93;101148.47;5058968;28;45393;-65
2023/03/29 07:47:15;;;;;;;;;12.75;12.00;;;;;12.49;54.12;101141.38;5058847;28;45385;-65
2023/03/29 07:49:43;;;;;;;;;10.00;8.00;;;;;12.46;54.20;101132.66;5051622;28;47743;-65
2023/03/29 07:52:08;;;;;;;;;10.50;9.00;;;;;12.54;54.29;101138.69;5079401;28;45161;-65
2023/03/29 07:54:34;;;;;;;;;11.25;11.25;;;;;12.57;54.42;101138.63;5067995;28;46055;-65
2023/03/29 07:56:59;;;;;;;;;12.00;11.00;;;;;12.60;54.42;101135.97;5058135;28;46244;-65
2023/03/29 07:59:26;;;;;;;;;14.50;10.00;;;;;12.63;54.56;101135.88;5040728;28;46821;-65
2023/03/29 08:01:52;;;;;;;;;13.25;11.25;;;;;12.71;54.44;101148.94;5040885;28;45389;-65
2023/03/29 08:04:18;;;;;;;;;10.75;10.75;;;;;12.77;54.51;101153.25;5040725;28;45604;-65
2023/03/29 08:06:43;;;;;;;;;10.50;9.25;;;;;12.78;54.45;101155.88;5058702;28;45376;-65
2023/03/29 08:09:08;;;;;;;;;10.50;10.00;;;;;12.86;54.75;101160.16;5058759;28;45332;-65
2023/03/29 08:11:34;;;;;;;;;11.00;9.25;;;;;12.90;54.36;101157.41;5060055;28;45284;-65
2023/03/29 08:13:59;;;;;;;;;13.50;13.50;;;;;12.97;54.63;101159.06;5062404;28;45459;-65
2023/03/29 08:16:25;;;;;;;;;11.50;11.25;;;;;13.04;54.70;101166.88;5061351;28;45331;-65
2023/03/29 08:18:50;;;;;;;;;13.00;11.25;;;;;13.08;54.32;101161.50;5062178;28;45323;-65
2023/03/29 08:21:16;;;;;;;;;12.50;12.50;;;;;13.16;54.47;101162.22;5062280;28;45843;-65
2023/03/29 08:23:41;;;;;;;;;13.00;11.50;;;;;13.20;54.67;101152.50;5044115;28;45277;-65
2023/03/29 08:26:08;;;;;;;;;11.25;10.75;;;;;13.29;54.62;101162.00;5061903;28;45922;-65
2023/03/29 08:28:33;;;;;;;;;13.50;13.00;;;;;13.34;54.92;101160.16;5062196;28;45328;-65
2023/03/29 08:30:59;;;;;;;;;13.75;13.00;;;;;13.39;54.63;101153.03;5043590;28;45273;-65
2023/03/29 08:33:24;;;;;;;;;16.00;12.25;;;;;13.44;54.89;101155.59;5062122;28;45291;-65
2023/03/29 08:35:49;;;;;;;;;15.50;14.50;;;;;13.45;54.70;101152.06;5061714;28;45245;-65
2023/03/29 08:38:15;;;;;;;;;15.50;12.75;;;;;13.56;54.72;101147.44;5062141;28;45178;-65
2023/03/29 08:40:40;;;;;;;;;13.75;12.00;;;;;13.61;54.84;101156.13;5043826;28;45434;-65
2023/03/29 08:43:06;;;;;;;;;14.50;9.25;;;;;13.66;54.66;101150.78;5061932;28;45262;-65
2023/03/29 08:45:45;;;;;;;;;10.75;7.50;;;;;13.69;55.03;101141.91;5061393;28;45427;-65
2023/03/29 08:48:11;;;;;;;;;10.00;10.00;;;;;13.74;54.80;101158.53;5061740;28;45412;-65
2023/03/29 08:50:51;;;;;;;;;11.50;10.25;;;;;13.80;54.76;101153.13;5057006;28;45170;-65
2023/03/29 08:53:26;;;;;;;;;13.50;12.00;;;;;13.86;54.71;101146.81;5070812;28;45352;-65
2023/03/29 08:55:54;;;;;;;;;10.75;10.75;;;;;13.89;54.88;101142.34;5061645;28;45435;-66
2023/03/29 08:58:24;;;;;;;;;11.75;9.00;;;;;13.93;54.87;101144.00;5043175;28;45459;-65
2023/03/29 09:00:54;;;;;;;;;11.50;8.75;;;;;13.98;55.04;101146.56;5043204;28;45239;-65
2023/03/29 09:03:28;;;;;;;;;11.75;9.00;;;;;14.04;55.30;101143.78;5061201;28;45333;-65
2023/03/29 09:06:02;;;;;;;;;8.00;8.00;;;;;14.11;55.31;101148.03;5061409;28;45513;-65
2023/03/29 09:08:28;;;;;;;;;9.75;7.25;;;;;14.14;55.64;101147.97;5061216;28;45315;-66
2023/03/29 09:11:15;;;;;;;;;11.75;10.25;;;;;14.24;55.07;101151.28;5061357;28;45328;-65
2023/03/29 09:14:01;;;;;;;;;9.25;9.00;;;;;14.32;55.30;101153.72;5070188;28;45768;-66
2023/03/29 09:16:35;;;;;;;;;7.25;7.00;;;;;14.37;55.56;101137.78;5052241;28;46134;-66
2023/03/29 09:19:42;;;;;;;;;10.00;9.00;;;;;14.42;55.39;101144.66;5061307;28;45304;-66
2023/03/29 09:22:16;;;;;;;;;8.50;8.25;;;;;14.54;55.40;101140.00;5072503;28;45190;-66
2023/03/29 09:25:03;;;;;;;;;8.75;7.75;;;;;14.62;55.37;101145.97;5062924;28;45846;-66
2023/03/29 09:27:38;;;;;;;;;9.00;9.00;;;;;14.69;55.52;101137.03;5062901;28;46933;-66
2023/03/29 09:30:27;;;;;;;;;7.75;6.00;;;;;14.76;55.66;101133.28;5081253;28;45268;-66
2023/03/29 09:32:57;;;;;;;;;9.50;9.00;;;;;14.86;55.60;101133.94;5081437;28;45473;-66
2023/03/29 09:35:52;;;;;;;;;6.75;6.50;;;;;14.98;55.43;101137.16;5062577;28;45477;-66
2023/03/29 09:38:20;;;;;;;;;10.25;6.25;;;;;15.07;55.63;101134.28;5053182;28;45265;-66
2023/03/29 09:41:01;;;;;;;;;8.25;6.00;;;;;15.15;55.60;101131.44;5080886;28;45423;-66
2023/03/29 09:43:36;;;;;;;;;7.25;5.50;;;;;15.23;55.75;101124.13;5081318;28;45175;-67
2023/03/29 09:46:09;;;;;;;;;8.75;5.75;;;;;15.34;55.63;101126.50;5081063;28;45176;-66
2023/03/29 09:48:39;;;;;;;;;10.50;9.75;;;;;15.41;55.54;101125.44;5061007;28;47195;-66
2023/03/29 09:51:07;;;;;;;;;10.00;7.00;;;;;15.48;55.86;101119.00;5062690;28;45459;-66
2023/03/29 09:53:33;;;;;;;;;8.75;8.75;;;;;15.54;55.63;101124.13;5059526;28;45352;-66
2023/03/29 09:56:00;;;;;;;;;6.50;6.25;;;;;15.60;55.78;101116.03;5060614;28;45332;-66
2023/03/29 09:58:29;;;;;;;;;8.75;7.50;;;;;15.70;55.91;101115.78;5060439;28;46075;-66
2023/03/29 10:01:00;;;;;;;;;5.50;5.50;;;;;15.74;55.52;101105.00;5060396;28;45272;-66
2023/03/29 10:03:28;;;;;;;;;11.00;10.00;;;;;15.80;55.77;101105.75;5042421;28;45346;-66
2023/03/29 10:05:57;;;;;;;;;10.75;8.50;;;;;15.89;55.30;101089.59;5060538;28;45256;-66
2023/03/29 10:08:26;;;;;;;;;6.75;5.75;;;;;15.98;55.54;101096.41;5060224;28;45525;-66
2023/03/29 10:10:52;;;;;;;;;7.00;6.00;;;;;16.03;55.93;101100.63;5060336;28;45245;-67
2023/03/29 10:13:25;;;;;;;;;9.25;7.25;;;;;16.11;55.63;101100.38;5060386;28;45553;-66
2023/03/29 10:16:06;;;;;;;;;10.00;6.50;;;;;16.19;55.63;101093.06;5041827;28;45440;-66
2023/03/29 10:18:37;;;;;;;;;8.25;5.75;;;;;16.27;55.38;101097.28;5068984;28;46310;-67
2023/03/29 10:21:04;;;;;;;;;7.00;7.00;;;;;16.33;55.32;101095.28;5080426;28;45252;-66
2023/03/29 10:23:35;;;;;;;;;7.00;6.00;;;;;16.47;55.53;101092.16;5080631;28;45237;-67
2023/03/29 10:26:03;;;;;;;;;7.00;7.00;;;;;16.58;55.54;101082.06;5080361;28;45325;-66
2023/03/29 10:28:30;;;;;;;;;6.25;5.75;;;;;16.72;55.31;101080.72;5080409;27;47521;-66
2023/03/29 10:30:59;;;;;;;;;5.25;5.00;;;;;16.83;55.17;101080.34;5079558;28;45319;-66
2023/03/29 10:33:30;;;;;;;;;7.75;6.50;;;;;16.89;55.29;101077.47;5079704;28;45520;-66
2023/03/29 10:35:57;;;;;;;;;4.50;3.50;;;;;17.04;55.28;101084.06;5080261;28;45241;-66
2023/03/29 10:38:27;;;;;;;;;5.50;5.00;;;;;17.17;55.34;101072.09;5061988;28;47565;-66
2023/03/29 10:40:54;;;;;;;;;5.75;5.00;;;;;17.28;54.83;101089.41;5080014;28;45221;-66
2023/03/29 10:43:28;;;;;;;;;8.00;6.00;;;;;17.42;55.13;101083.59;5080366;28;45352;-67
2023/03/29 10:45:55;;;;;;;;;10.50;9.00;;;;;17.53;55.06;101066.34;5079930;28;45458;-66
2023/03/29 10:48:28;;;;;;;;;6.50;3.00;;;;;17.68;54.52;101061.34;5070225;28;45440;-66
2023/03/29 10:50:57;;;;;;;;;4.00;4.00;;;;;17.90;54.83;101071.13;5041296;28;45276;-66
2023/03/29 10:53:29;;;;;;;;;4.25;3.25;;;;;18.04;54.34;101058.19;5068887;28;45343;-66
2023/03/29 10:56:15;;;;;;;;;4.25;4.00;;;;;18.26;54.69;101057.31;5059661;28;45368;-67
2023/03/29 10:58:53;;;;;;;;;7.00;5.25;;;;;18.47;54.45;101050.22;5040790;28;46892;-67
2023/03/29 11:01:37;;;;;;;;;4.00;3.25;;;;;18.70;54.16;101040.38;5059550;28;45386;-67
2023/03/29 11:04:10;;;;;;;;;4.00;2.75;;;;;18.92;54.22;101027.03;5050954;28;45474;-66
2023/03/29 11:06:48;;;;;;;;;7.50;4.25;;;;;19.11;54.14;101041.25;5079901;28;45421;-66
2023/03/29 11:09:39;;;;;;;;;3.00;2.75;;;;;19.36;53.92;101039.25;5061308;28;47235;-66
2023/03/29 11:12:10;;;;;;;;;3.25;3.00;;;;;19.64;53.40;101041.50;5061752;28;45269;-66
2023/03/29 11:14:54;;;;;;;;;3.25;3.25;;;;;19.88;53.43;101046.63;5079648;28;45542;-66
2023/03/29 11:17:53;;;;;;;;;4.50;3.50;;;;;20.12;53.12;101032.09;5079878;28;45403;-67
2023/03/29 11:20:32;;;;;;;;;6.00;3.00;;;;;20.42;53.00;101043.97;5079755;28;45301;-66
2023/03/29 11:23:16;;;;;;;;;5.00;4.00;;;;;20.63;52.63;101034.84;5079530;28;45495;-66
2023/03/29 11:26:00;;;;;;;;;3.75;2.00;;;;;20.80;53.03;101032.28;5079732;28;45287;-66
2023/03/29 11:28:42;;;;;;;;;2.00;2.00;;;;;20.96;52.83;101025.16;5061408;28;45218;-68
2023/03/29 11:31:30;;;;;;;;;6.50;3.50;;;;;21.09;52.09;101023.56;5061033;28;48312;-67